Henry, Virginia
Current Conditions -  °F | °C
As of 8:15 AM on Thursday 23 Oct 2014 (Local Time) from KMTV Reporting Station
Clear Clear  
Wind Chill: 46°   Ceiling: Unl
Heat Index: 50°   Visibility: 10mi
Dew Point: 39°   Wind: 8mph
Humidity: 68%   Direction: 330°NNW
Pressure: 30.07"   Gusts: 18mph
Location:  36.83°N, 79.99°W
Report Text: KMTV 231215Z AUTO 33007G16KT 10SM CLR 10/04 A3007 RMK AO2 T00980041
Loading
Personal Weather Stations






























Interactive Weather Map
Tropical Storm Tracking
New forecast layout! Learn more

10-Day Weather Forecast

Advertisements
Track Severe Weather on mobile